EST,Max TemperatureF,Mean TemperatureF,Min TemperatureF,Max Dew PointF,MeanDew PointF,Min DewpointF,Max Humidity, Mean Humidity, Min Humidity, Max Sea Level PressureIn, Mean Sea Level PressureIn, Min Sea Level PressureIn, Max VisibilityMiles, Mean VisibilityMiles, Min VisibilityMiles, Max Wind SpeedMPH, Mean Wind SpeedMPH, Max Gust SpeedMPH,PrecipitationIn, CloudCover, Events, WindDirDegrees
2013-12-1,51,34,18,36,29,18,100,86,50,30.36,30.17,30.01,10,10,7,4,0,,0.00,3,,155
2013-12-2,46,39,33,41,38,33,100,91,79,30.00,29.92,29.87,10,10,7,4,1,,0.00,8,,31
2013-12-3,57,44,31,44,38,32,100,91,61,29.99,29.93,29.88,10,8,1,6,0,,0.00,3,,229
2013-12-4,60,46,32,56,43,33,100,94,75,30.07,30.02,29.98,10,8,5,6,1,,0.00,6,,123
2013-12-5,68,62,55,65,60,56,100,95,80,30.06,30.00,29.93,10,9,5,13,5,21,0.00,8,Rain,198
2013-12-6,66,54,41,67,52,41,100,100,97,30.16,30.02,29.89,10,8,2,15,8,22,0.47,8,Rain,350
2013-12-7,44,36,28,40,34,27,100,86,69,30.54,30.37,30.14,10,10,4,16,8,24,0.14,3,Rain,354
2013-12-8,32,29,26,32,28,24,100,93,76,30.58,30.47,30.30,10,6,0,10,4,,0.80,7,Rain-Snow,15
2013-12-9,35,34,32,36,34,32,100,100,100,30.30,30.11,30.03,10,2,0,6,0,,0.24,8,Fog-Rain,3
2013-12-10,39,30,22,39,31,22,100,93,60,30.22,30.07,29.99,10,6,0,8,1,,0.26,5,Fog-Rain-Snow,236
2013-12-11,44,30,15,29,23,16,100,86,45,30.40,30.29,30.22,10,10,10,8,1,,0.00,0,,209
2013-12-12,35,25,15,26,19,15,100,77,48,30.43,30.33,30.25,10,10,10,16,5,18,0.00,0,,339
2013-12-13,43,29,15,30,23,16,100,72,44,30.29,30.25,30.21,10,10,10,8,2,,0.00,0,,197
2013-12-14,37,33,29,36,33,28,100,95,82,30.31,30.13,29.72,10,7,1,9,2,,0.25,7,Rain-Snow,14
2013-12-15,51,38,24,44,34,25,100,87,53,29.95,29.79,29.64,10,6,0,15,2,18,0.14,4,Fog,277
2013-12-16,39,34,29,32,31,28,100,88,75,30.17,30.09,29.95,10,10,10,8,3,,0.00,6,,42
2013-12-17,41,36,32,38,34,30,100,93,86,30.14,30.01,29.92,10,10,3,8,1,,0.00,7,Rain,28
2013-12-18,44,34,23,34,29,24,100,86,55,30.21,30.14,30.00,10,8,0,9,1,,0.01,2,Fog-Snow,219
2013-12-19,62,42,22,38,31,23,100,67,39,30.20,30.14,30.07,10,10,10,13,3,16,0.00,0,,200
2013-12-20,62,52,42,46,39,33,68,57,48,30.12,30.07,30.00,10,10,10,12,6,18,0.00,1,,206
2013-12-21,71,62,53,64,55,45,88,77,64,30.03,29.98,29.92,10,10,10,18,8,32,0.00,2,,205
2013-12-22,72,68,63,67,64,62,100,92,82,30.02,29.93,29.83,10,10,2,20,11,33,0.18,7,Rain,194
2013-12-23,64,52,38,64,53,32,100,92,74,30.24,30.05,29.91,10,9,2,17,6,25,0.44,7,Rain,306
2013-12-24,42,32,23,32,25,13,100,73,50,30.49,30.29,30.21,10,10,10,22,8,28,0.00,2,,326
2013-12-25,34,25,17,19,16,14,96,68,47,30.57,30.48,30.36,10,10,10,12,4,,0.00,0,,133
2013-12-26,48,34,19,30,24,19,100,78,44,30.36,30.28,30.22,10,10,10,8,2,,0.00,1,,214
2013-12-27,53,36,19,29,25,20,100,80,39,30.43,30.36,30.32,10,10,10,10,1,,0.00,0,,211
2013-12-28,59,40,21,34,29,22,100,75,38,30.34,30.24,30.11,10,10,10,10,2,,0.00,0,,212
2013-12-29,49,40,32,50,42,33,100,95,57,30.10,29.83,29.57,10,7,1,10,3,18,1.25,6,Rain,299
2013-12-30,46,38,30,42,34,29,100,88,74,30.18,30.03,29.82,10,10,5,16,3,21,0.00,4,,8
2013-12-31,49,36,23,33,28,23,100,76,45,30.34,30.19,30.12,10,10,10,18,3,25,0.00,2,,268